Lucas Moura

Scout - Flamengo
28 Oct 2027
Thursday
Process

Personality

Adaptability (5) Ambition (8) Controversy (17) Loyalty (1) Pressure (6) Professionalism (17) Sportsmanship (7) Temperament (19)

Profile

Coaching Style Democratic
License Continental B
Determination 7
Man Management 12
Motivating 8
Discipline 16
Job Satisfaction
100%
Fatigue
0%
Role Scout
Wage 118.6K p/w
Contract 14.03.2028

Performance

Behaviour Good
Training Effectiveness
52%
Player Development
35%
Injury Prevention
75%
Tactical Implementation
55%

Recent Events

Attended a recruitment meeting now
Attended a recruitment meeting 7d ago
Recommended a transfer target 7d ago
Attended a recruitment meeting 7d ago
Attended a recruitment meeting 14d ago
Recommended a transfer target 14d ago
Attended a recruitment meeting 14d ago
Attended a recruitment meeting 21d ago

Currently Monitoring

191
Player Club Status Ability Confidence Watched Last Observed Latest Vote
Ferreirinha Sport Recife Active 129 / 124 79% 1 03.06.2027 Approve
Xaver Schlager Nottingham Forest Active 157 / 151 40% 2 31.05.2027 -
Noussair Mazraoui Manchester United Active 155 / 150 40% 2 31.05.2027 -
Sven Botman Newcastle United Active 159 / 163 40% 2 31.05.2027 -
Nico González Newcastle United Active 165 / 157 40% 1 29.05.2027 -
João Pedro Chelsea Active 161 / 159 40% 1 29.05.2027 Needs More Info
Max Bird Birmingham Active 136 / 141 40% 2 28.05.2027 -
Miloš Kerkez Liverpool Active 152 / 165 40% 2 28.05.2027 -
Pelle Mattsson Norwich City Active 127 / 135 40% 1 28.05.2027 -
Ryan Sessegnon Fulham Active 142 / 138 40% 4 27.05.2027 -
Ryan Gravenberch Liverpool Active 158 / 162 40% 1 27.05.2027 -
Luke McNally Bristol City Active 135 / 138 40% 1 27.05.2027 -
Harry Clarke Preston Active 131 / 119 40% 1 26.05.2027 -
Jeremie Frimpong Liverpool Active 162 / 167 40% 1 26.05.2027 -
Mats Wieffer Brighton Active 155 / 151 40% 4 25.05.2027 -
Jack Currie Oxford United Active 117 / 132 40% 1 25.05.2027 -
William Saliba Arsenal Active 178 / 177 40% 1 25.05.2027 -
Xavi Simons Tottenham Active 154 / 154 40% 3 24.05.2027 -
Rayan Cherki Manchester City Active 165 / 160 40% 2 24.05.2027 -
Gabriel Martinelli Brighton Active 169 / 167 40% 1 24.05.2027 -
Kai Havertz Arsenal Active 163 / 161 40% 3 23.05.2027 -
Finn Azaz Southampton Active 126 / 131 40% 1 23.05.2027 -
Dango Ouattara Brentford Active 146 / 153 40% 1 23.05.2027 -
Aune Heggebø West Bromwich Albion Active 134 / 118 40% 5 22.05.2027 -
Jérémy Doku Manchester City Active 171 / 165 40% 2 22.05.2027 -
Romelu Witsel Liverpool Active 171 / 172 40% 1 22.05.2027 -
Florian Wirtz Liverpool Active 176 / 168 40% 3 19.05.2027 -
Mohamed-Ali Cho Hull City Active 135 / 138 40% 1 19.05.2027 -
Mikkel Damsgaard Brentford Active 146 / 153 40% 1 19.05.2027 -
Luis Vázquez Birmingham Active 126 / 118 40% 1 18.05.2027 -
Dávid Strelec Middlesbrough Active 140 / 131 40% 1 17.05.2027 -
Kenan Yıldız Juventus Active 168 / 165 40% 2 16.05.2027 -
Nicolas Jackson Aston Villa Active 148 / 149 40% 1 16.05.2027 -
Welington Southampton Active 135 / 124 40% 2 15.05.2027 -
Rico Lewis Manchester City Active 151 / 150 40% 1 15.05.2027 -
Vinícius Júnior Arsenal Active 182 / 182 40% 2 14.05.2027 -
Tommy Conway Middlesbrough Active 136 / 126 40% 1 14.05.2027 -
Iliman N'Diaye Everton Active 162 / 151 40% 1 14.05.2027 -
Sandro Tonali Tottenham Active 178 / 165 40% 1 13.05.2027 -
Enzo Fernández Manchester City Lost 174 / 174 40% 3 10.05.2027 -
Adam Wharton Crystal Palace Active 156 / 163 40% 2 09.05.2027 -
Nuno Tavares Lazio Active 145 / 143 40% 1 09.05.2027 -
Soungoutou Magassa West Ham United Active 130 / 133 40% 1 09.05.2027 -
Ilyas Ansah Hull City Active 134 / 130 40% 2 08.05.2027 -
Gonçalo Ramos AC Milan Active 154 / 163 40% 1 08.05.2027 -
Isaiah Jones Luton Town Active 129 / 122 40% 1 04.05.2027 -
Assane Diao Lazio Active 151 / 149 40% 1 04.05.2027 -
Phil Foden Manchester City Active 172 / 165 40% 1 04.05.2027 -
Curtis Jones Inter Active 152 / 146 40% 2 03.05.2027 -
Yehor Yarmoliuk Brentford Active 146 / 144 40% 2 02.05.2027 -
Florentino Luís Ipswich Town Active 137 / 141 40% 1 02.05.2027 -
Nathan Collins Brentford Active 142 / 142 40% 4 01.05.2027 -
Reece James Chelsea Active 174 / 168 40% 1 01.05.2027 -
Wesley Fofana Chelsea Active 165 / 165 40% 1 01.05.2027 -
Moisés Caicedo Chelsea Active 162 / 177 40% 2 28.04.2027 -
Shea Charles Southampton Active 143 / 144 40% 1 28.04.2027 -
Derensili Sanches Fernandes Huddersfield Town Active 120 / 116 40% 1 28.04.2027 -
Marc Guéhi Manchester City Active 165 / 162 40% 1 26.04.2027 -
Aaron Hickey Brentford Active 153 / 153 40% 3 24.04.2027 -
João Mendes Vitoria Guimaraes Active 118 / 120 40% 2 24.04.2027 -
Roberto Fernández Braga Active 144 / 150 40% 6 23.04.2027 -
Figueiredo Alverca Active 137 / 124 40% 5 23.04.2027 -
Rafik Guitane Estoril Praia Active 138 / 131 40% 2 23.04.2027 -
Jacob Ramsey Newcastle United Active 153 / 160 40% 1 23.04.2027 -
Gustavo Silva Vitoria Guimaraes Active 120 / 113 40% 5 21.04.2027 -
Cody Gakpo Liverpool Active 160 / 154 40% 1 21.04.2027 -
Francisco Moura Lusitânia Lourosa Active 149 / 136 40% 2 20.04.2027 -
Matheus Cunha Manchester United Active 153 / 155 40% 2 20.04.2027 -
Fotis Ioannidis Rio Ave Active 134 / 132 40% 1 18.04.2027 -
Kwame Opoku Asante Kotoko Active 108 / 98 40% 1 18.04.2027 -
Callum Hudson-Odoi Nottingham Forest Active 145 / 159 40% 1 17.04.2027 -
Alberto Costa Porto Active 138 / 150 40% 4 16.04.2027 -
Scott Twine Bristol City Active 133 / 130 40% 1 16.04.2027 -
Nabil Touaizi Alverca Active 111 / 117 40% 1 15.04.2027 -
Bright Arrey-Mbi Braga Active 133 / 125 40% 1 14.04.2027 -
Diego Lainez Tigres Active 137 / 133 40% 3 13.04.2027 -
Fally Mayulu Arouca Active 116 / 109 40% 1 13.04.2027 -
Mees Rijks Bristol Rovers Active 107 / 110 40% 1 13.04.2027 -
Gabriel Veron Porto Active 121 / 120 40% 2 10.04.2027 -
José Manuel López Palmeiras Active 131 / 130 40% 1 10.04.2027 -
Dom Ballard Leyton Orient Active 120 / 118 40% 1 10.04.2027 -
Mario Dorgeles Braga Active 138 / 139 40% 4 09.04.2027 -
Rodrigo Zalazar Sporting CP Active 153 / 151 40% 4 08.04.2027 -
Makan Aïko Tondela Active 123 / 110 40% 4 07.04.2027 -
Sergi Altimira Sporting CP Active 132 / 132 40% 2 06.04.2027 -
Tony Strata Vitoria Guimaraes Active 117 / 132 40% 1 06.04.2027 -
Morgan Whittaker Middlesbrough Active 132 / 134 40% 3 04.04.2027 -
Gianluca Prestianni Benfica Active 128 / 136 40% 2 04.04.2027 -
Zeki Amdouni Burnley Active 138 / 135 40% 1 04.04.2027 -
Lorenzo Colombo Genoa Active 141 / 136 40% 1 04.04.2027 -
Tom Cannon Sheffield United Active 135 / 134 40% 1 03.04.2027 -
Pau Víctor AVS Active 137 / 130 40% 5 01.04.2027 -
Naïs Djouahra Arouca Active 132 / 119 40% 1 01.04.2027 -
Ricard Sánchez Estoril Praia Active 128 / 121 40% 1 30.03.2027 -
Osame Sahraoui LOSC Lille Active 137 / 151 40% 1 30.03.2027 -
Tom Fellows Southampton Active 141 / 128 40% 3 27.03.2027 -
Erick Sánchez OGC Nice Active 134 / 138 40% 1 25.03.2027 -
Taichi Fukui Arouca Active 132 / 136 40% 1 25.03.2027 -
Luis Quintero Torreense Active 124 / 125 40% 4 18.03.2027 -
Carlos Vicente Birmingham Active 153 / 146 40% 4 18.03.2027 -
Razvan Balasa Crvena Zvezda Active 156 / 148 40% 2 17.03.2027 -
William Gomes Porto Active 136 / 136 40% 4 15.03.2027 -
Víctor Gómez Braga Active 132 / 140 40% 1 15.03.2027 -
Martín Tejón Maritimo Active 121 / 112 40% 1 14.03.2027 -
Ole Pohlmann Rio Ave Active 122 / 112 40% 6 13.03.2027 -
Santi García Gil Vicente Active 135 / 130 40% 2 13.03.2027 -
Ozziel Herrera Tigres Active 135 / 135 40% 1 13.03.2027 -
Yousef Salech Cardiff City Active 119 / 117 40% 1 11.03.2027 -
Félix Lemaréchal Club Brugge Active 136 / 143 40% 1 07.03.2027 -
Alfonso Trezza Arouca Active 121 / 126 40% 4 06.03.2027 -
Joaquín Panichelli Le Havre AC Active 150 / 138 40% 1 05.03.2027 -
Vinícius Lopes Santa Clara Active 114 / 129 40% 1 04.03.2027 -
Iván Fresneda Sporting CP Active 145 / 141 40% 1 04.03.2027 -
Toni Fruk KV Mechelen Active 129 / 134 40% 2 02.03.2027 -
Leandro Antonetti Estrela da Amadora Active 99 / 108 40% 1 02.03.2027 -
Ianis Stoica Estrela da Amadora Active 122 / 113 40% 1 28.02.2027 -
Telmo Arcanjo Vitoria Guimaraes Active 128 / 122 40% 1 27.02.2027 -
Gabri Martínez Braga Active 130 / 129 40% 1 26.02.2027 -
Dawda Camara Alverca Active 128 / 131 40% 3 24.02.2027 -
Miguel Falé Pacos de Ferreira Active 110 / 102 40% 2 24.02.2027 -
Marezi Portsmouth Active 124 / 121 40% 1 24.02.2027 -
Heorhii Sudakov Benfica Active 148 / 156 40% 2 23.02.2027 -
Adnan Courtois KV Oostende Active 142 / 142 40% 1 16.02.2027 -
Tyrese Campbell Sheffield United Active 136 / 118 40% 1 16.02.2027 -
Joe Gelhardt Hull City Active 134 / 141 40% 1 12.02.2027 -
Adriano Bertaccini Anderlecht Active 120 / 133 40% 1 10.02.2027 -
Rodrigo Pinheiro Famalicao Active 134 / 135 40% 1 09.02.2027 -
Will Lankshear Middlesbrough Active 128 / 131 40% 2 08.02.2027 -
Oston O'runov Persepolis Active 120 / 109 40% 1 05.02.2027 -
Lassina Traoré Shakhtar Active 129 / 117 40% 1 02.02.2027 -
Petar Stanić Ludogorets Active 135 / 126 40% 1 01.02.2027 -
Lee Hyun-Ju Arouca Active 127 / 112 40% 1 01.02.2027 -
Yanis Begraoui Estoril Praia Active 130 / 139 40% 1 21.12.2026 -
Themba Ngcobo SuperSport United Active 120 / 114 40% 1 21.12.2026 -
Alan Varela Porto Active 135 / 154 40% 2 30.11.2026 -
Anatolii Trubin Juventus Active 149 / 146 40% 6 29.11.2026 -
Erick Reyes Toluca Active 144 / 143 40% 3 28.11.2026 -
Pedro Porro Tottenham Active 153 / 153 40% 2 22.11.2026 -
Kostantis Tzolakis Hull City Active 135 / 148 40% 2 21.11.2026 -
João Neves Paris Saint-Germain Active 174 / 173 40% 2 18.11.2026 -
Wendel Zenit Active 141 / 131 40% 1 18.11.2026 -
Mads Hermansen West Ham United Active 143 / 130 40% 1 16.11.2026 -
Victor Froholdt Porto Active 148 / 160 40% 4 14.11.2026 -
Matthijs de Ligt Manchester United Active 151 / 149 40% 6 14.11.2026 -
Quinten Timber Crystal Palace Active 148 / 157 40% 2 14.11.2026 -
Fikayo Tomori AC Milan Active 145 / 143 40% 1 13.11.2026 -
Ousmane Diomande Nottingham Forest Active 143 / 147 40% 1 13.11.2026 -
Tomás Araújo Benfica Active 143 / 151 40% 3 11.11.2026 -
Lewis Cook Bournemouth Active 142 / 150 40% 1 11.11.2026 -
Benjamin White Arsenal Active 155 / 159 40% 2 10.11.2026 -
Senne Lammens Manchester United Active 151 / 158 40% 3 05.11.2026 -
Dean Henderson Crystal Palace Active 156 / 138 40% 5 05.11.2026 -
Jarrad Branthwaite Everton Active 143 / 156 40% 3 04.11.2026 -
Lisandro Martínez Manchester United Active 156 / 159 40% 2 04.11.2026 -
Tyler Adams Bournemouth Active 145 / 142 40% 1 04.11.2026 -
Hugo Souza Corinthians Active 140 / 142 40% 2 03.11.2026 -
Maduka Okoye Udinese Active 137 / 143 40% 1 03.11.2026 -
Josep Martínez Inter Active 132 / 127 40% 3 31.10.2026 -
Elis Bishesari IFK Goteborg Active 116 / 124 40% 1 31.10.2026 -
Robin Roefs Sunderland Active 136 / 146 40% 2 29.10.2026 -
Éderson Feyenoord Active 162 / 149 40% 1 20.10.2026 -
Malick Thiaw West Ham United Active 144 / 162 40% 1 20.10.2026 -
Malo Gusto Chelsea Active 137 / 140 40% 1 20.10.2026 -
Deniz Ertaş Konyaspor Active 110 / 114 40% 1 14.10.2026 -
James Garner Everton Active 156 / 141 40% 1 14.10.2026 -
Anton Stach Leeds United Active 153 / 147 40% 1 14.10.2026 -
Takehiro Tomiyasu Crystal Palace Active 138 / 142 40% 1 12.10.2026 -
Óscar Mingueza Crystal Palace Active 140 / 148 40% 1 12.10.2026 -
Ibrahim Sangaré Nottingham Forest Active 144 / 139 40% 2 11.10.2026 -
Elliot Anderson Manchester City Active 156 / 143 40% 1 11.10.2026 -
Caoimhin Kelleher Brentford Active 156 / 153 40% 2 07.10.2026 -
Gonçalo Inácio Sporting CP Active 154 / 139 40% 3 06.10.2026 -
Rayan Aït-Nouri Manchester City Active 135 / 135 40% 1 05.10.2026 -
Alessandro Buongiorno Sassuolo Active 152 / 146 40% 1 05.10.2026 -
Arijanet Murić Sassuolo Active 129 / 133 40% 1 05.10.2026 -
Matvey Safonov Paris Saint-Germain Active 148 / 149 40% 1 05.10.2026 -
Yehvann Diouf OGC Nice Active 128 / 138 40% 2 03.10.2026 -
Ethan Ampadu Leeds United Active 134 / 151 40% 2 24.09.2026 -
Calvin Bassey Fulham Active 147 / 139 40% 1 23.09.2026 -
Tomoki Hayakawa Kashima Antlers Active 129 / 126 40% 1 22.09.2026 -
Dmytro Riznyk Cruz Azul Active 132 / 144 40% 1 18.09.2026 -
Guillaume Restes Toulouse FC Active 141 / 126 40% 1 17.09.2026 -
Martim Fernandes Porto Active 131 / 148 40% 1 15.09.2026 -
Jake O'Brien Everton Active 134 / 145 40% 1 15.09.2026 -
Jan Paul van Hecke Tottenham Active 161 / 160 40% 1 10.09.2026 -
Marcos Senesi Tottenham Active 155 / 136 40% 1 07.09.2026 -
Robin Le Normand Atlético Madrid Active 160 / 157 40% 1 08.08.2026 -
Ian Maatsen Aston Villa Active 156 / 161 40% 1 05.08.2026 -
Andriy Lunin Real Madrid Active 160 / 151 40% 1 03.08.2026 -
Adrien Truffert Bournemouth Active 149 / 160 40% 1 01.08.2026 -
Frenkie de Jong Barcelona Active 174 / 176 40% 1 01.08.2026 -